createdAt,value
2022-11-08T00:02:13.189Z,18.60
2022-11-08T00:04:39.978Z,16.90
2022-11-08T00:07:25.071Z,20.57
2022-11-08T00:10:10.286Z,16.00
2022-11-08T00:12:55.472Z,16.80
2022-11-08T00:15:21.900Z,22.07
2022-11-08T00:17:48.348Z,16.70
2022-11-08T00:20:14.805Z,14.53
2022-11-08T00:22:41.296Z,21.73
2022-11-08T00:25:08.033Z,17.40
2022-11-08T00:27:34.517Z,17.57
2022-11-08T00:30:01.003Z,16.17
2022-11-08T00:32:27.509Z,14.40
2022-11-08T00:34:54.243Z,13.67
2022-11-08T00:37:21.846Z,17.23
2022-11-08T00:39:48.764Z,13.87
2022-11-08T00:42:15.504Z,15.10
2022-11-08T00:44:42.019Z,12.20
2022-11-08T00:47:08.457Z,13.97
2022-11-08T00:49:34.991Z,15.87
2022-11-08T00:52:01.484Z,12.43
2022-11-08T00:54:27.989Z,12.27
2022-11-08T00:56:54.425Z,14.90
2022-11-08T00:59:20.990Z,13.83
2022-11-08T01:01:47.799Z,15.40
2022-11-08T01:04:18.140Z,11.90
2022-11-08T01:06:45.149Z,14.57
2022-11-08T01:09:11.737Z,11.77
2022-11-08T01:11:39.567Z,15.03
2022-11-08T01:14:06.299Z,15.30
2022-11-08T01:16:33.451Z,11.97
2022-11-08T01:19:00.605Z,11.43
2022-11-08T01:21:27.512Z,12.43
2022-11-08T01:23:57.224Z,11.20
2022-11-08T01:26:27.354Z,15.87
2022-11-08T01:28:54.684Z,10.33
2022-11-08T01:31:23.567Z,15.53
2022-11-08T01:33:51.712Z,13.33
2022-11-08T01:36:20.709Z,11.23
2022-11-08T01:38:47.484Z,11.07
2022-11-08T01:41:15.275Z,13.07
2022-11-08T01:43:53.400Z,13.47
2022-11-08T01:46:19.860Z,13.47
2022-11-08T01:48:50.966Z,13.90
2022-11-08T01:51:19.657Z,10.33
2022-11-08T01:53:46.476Z,9.83
2022-11-08T01:56:14.259Z,11.33
2022-11-08T01:58:42.654Z,13.17
2022-11-08T02:01:09.927Z,10.23
2022-11-08T02:03:36.636Z,11.80
2022-11-08T02:06:03.807Z,9.87
2022-11-08T02:08:37.926Z,9.63
2022-11-08T02:11:05.531Z,10.80
2022-11-08T02:13:33.615Z,9.57
2022-11-08T02:16:00.459Z,11.30
2022-11-08T02:18:29.130Z,12.67
2022-11-08T02:21:17.908Z,12.63
2022-11-08T02:23:52.424Z,8.47
2022-11-08T02:26:25.903Z,12.07
2022-11-08T02:28:52.364Z,7.77
2022-11-08T02:31:43.834Z,9.97
2022-11-08T02:34:10.332Z,9.67
2022-11-08T02:36:36.830Z,11.80
2022-11-08T02:39:03.424Z,9.90
2022-11-08T02:41:29.849Z,9.73
2022-11-08T02:43:57.504Z,10.60
2022-11-08T02:46:23.980Z,9.80
2022-11-08T02:48:50.443Z,9.00
2022-11-08T02:51:16.876Z,9.33
2022-11-08T02:53:43.419Z,9.17
2022-11-08T02:56:09.889Z,9.63
2022-11-08T02:58:36.380Z,9.20
2022-11-08T03:01:02.966Z,11.20
2022-11-08T03:03:29.447Z,8.63
2022-11-08T03:05:59.046Z,10.03
2022-11-08T03:08:25.526Z,12.87
2022-11-08T03:10:51.965Z,7.70
2022-11-08T03:13:18.437Z,8.80
2022-11-08T03:15:44.926Z,7.43
2022-11-08T03:18:11.356Z,7.37
2022-11-08T03:20:37.838Z,8.97
2022-11-08T03:23:06.502Z,7.53
2022-11-08T03:25:33.300Z,11.00
2022-11-08T03:28:07.891Z,11.30
2022-11-08T03:30:34.828Z,7.70
2022-11-08T03:33:01.965Z,8.60
2022-11-08T03:35:28.461Z,9.10
2022-11-08T03:37:56.430Z,10.03
2022-11-08T03:40:23.491Z,8.03
2022-11-08T03:42:50.100Z,10.57
2022-11-08T03:45:16.824Z,6.70
2022-11-08T03:47:44.864Z,7.43
2022-11-08T03:50:12.192Z,6.93
2022-11-08T03:52:41.922Z,8.27
2022-11-08T03:55:09.577Z,9.47
2022-11-08T03:57:39.803Z,8.90
2022-11-08T04:00:08.649Z,8.37
2022-11-08T04:02:35.428Z,8.60
2022-11-08T04:05:01.925Z,9.30
2022-11-08T04:07:28.740Z,10.13
2022-11-08T04:09:55.869Z,7.07
2022-11-08T04:12:54.604Z,10.27
2022-11-08T04:15:22.730Z,10.80
2022-11-08T04:18:09.337Z,7.90
2022-11-08T04:20:59.057Z,7.93
2022-11-08T04:23:26.342Z,6.93
2022-11-08T04:26:04.780Z,7.23
2022-11-08T04:28:33.118Z,11.83
2022-11-08T04:31:02.936Z,8.97
2022-11-08T04:33:29.731Z,8.70
2022-11-08T04:35:56.413Z,11.23
2022-11-08T04:38:22.927Z,6.67
2022-11-08T04:40:49.443Z,10.33
2022-11-08T04:43:16.080Z,11.93
2022-11-08T04:45:42.589Z,7.63
2022-11-08T04:48:09.158Z,11.07
2022-11-08T04:50:36.549Z,10.13
2022-11-08T04:53:03.148Z,10.87
2022-11-08T04:55:29.604Z,10.57
2022-11-08T04:57:59.337Z,9.13
2022-11-08T05:00:26.546Z,9.20
2022-11-08T05:02:53.085Z,10.67
2022-11-08T05:05:19.676Z,7.90
2022-11-08T05:07:46.174Z,8.07
2022-11-08T05:10:12.676Z,12.07
2022-11-08T05:12:39.146Z,7.60
2022-11-08T05:15:06.294Z,12.07
2022-11-08T05:17:32.723Z,8.27
2022-11-08T05:20:18.098Z,8.20
2022-11-08T05:23:03.106Z,8.77
2022-11-08T05:25:29.562Z,10.93
2022-11-08T05:27:55.987Z,8.43
2022-11-08T05:30:22.454Z,10.20
2022-11-08T05:32:51.675Z,8.23
2022-11-08T05:35:21.617Z,11.07
2022-11-08T05:37:48.451Z,11.23
2022-11-08T05:40:14.910Z,9.60
2022-11-08T05:42:41.332Z,12.67
2022-11-08T05:45:09.473Z,10.17
2022-11-08T05:47:36.546Z,12.40
2022-11-08T05:50:03.138Z,9.93
2022-11-08T05:52:29.582Z,12.17
2022-11-08T05:54:56.056Z,9.60
2022-11-08T05:57:22.537Z,9.60
2022-11-08T05:59:49.056Z,13.90
2022-11-08T06:02:17.089Z,10.63
2022-11-08T06:04:44.018Z,8.30
2022-11-08T06:07:10.459Z,8.10
2022-11-08T06:09:36.930Z,8.53
2022-11-08T06:12:03.582Z,8.80
2022-11-08T06:14:30.112Z,8.93
2022-11-08T06:16:56.545Z,11.87
2022-11-08T06:19:23.192Z,9.67
2022-11-08T06:21:49.642Z,7.30
2022-11-08T06:24:17.459Z,8.27
2022-11-08T06:26:44.462Z,11.80
2022-11-08T06:29:10.911Z,9.53
2022-11-08T06:31:41.873Z,12.23
2022-11-08T06:34:09.659Z,10.43
2022-11-08T06:36:36.318Z,9.00
2022-11-08T06:39:02.919Z,10.90
2022-11-08T06:41:30.035Z,10.00
2022-11-08T06:43:56.616Z,9.80
2022-11-08T06:46:23.376Z,11.40
2022-11-08T06:48:50.159Z,10.87
2022-11-08T06:51:17.015Z,8.07
2022-11-08T06:53:43.496Z,5.70
2022-11-08T06:56:10.315Z,9.63
2022-11-08T06:58:37.039Z,11.77
2022-11-08T07:01:04.655Z,6.77
2022-11-08T07:03:31.410Z,7.53
2022-11-08T07:05:57.938Z,7.20
2022-11-08T07:08:24.580Z,10.33
2022-11-08T07:10:51.531Z,9.60
2022-11-08T07:13:18.283Z,8.97
2022-11-08T07:15:45.372Z,9.93
2022-11-08T07:18:13.265Z,7.00
2022-11-08T07:20:40.692Z,8.33
2022-11-08T07:23:07.681Z,10.17
2022-11-08T07:25:34.742Z,6.57
2022-11-08T07:28:03.414Z,9.57
2022-11-08T07:30:30.153Z,9.23
2022-11-08T07:32:57.023Z,9.27
2022-11-08T07:35:24.855Z,6.17
2022-11-08T07:37:51.414Z,9.00
2022-11-08T07:40:17.973Z,11.27
2022-11-08T07:43:10.161Z,7.87
2022-11-08T07:45:30.883Z,10.73
2022-11-08T07:48:05.419Z,7.37
2022-11-08T07:50:34.644Z,9.60
2022-11-08T07:53:01.231Z,9.17
2022-11-08T07:55:27.735Z,6.70
2022-11-08T07:58:01.364Z,9.50
2022-11-08T08:00:31.685Z,11.03
2022-11-08T08:03:01.874Z,6.83
2022-11-08T08:05:30.177Z,9.03
2022-11-08T08:08:00.416Z,9.53
2022-11-08T08:10:28.150Z,6.40
2022-11-08T08:12:55.735Z,5.03
2022-11-08T08:15:22.346Z,6.40
2022-11-08T08:17:48.843Z,7.70
2022-11-08T08:20:15.402Z,6.80
2022-11-08T08:22:50.997Z,6.00
2022-11-08T08:25:18.802Z,6.70
2022-11-08T08:27:54.228Z,8.23
2022-11-08T08:30:21.723Z,6.57
2022-11-08T08:33:08.411Z,4.60
2022-11-08T08:35:38.699Z,5.93
2022-11-08T08:38:07.071Z,6.57
2022-11-08T08:40:34.664Z,8.07
2022-11-08T08:43:03.727Z,5.80
2022-11-08T08:45:31.838Z,5.40
2022-11-08T08:48:00.533Z,5.60
2022-11-08T08:50:30.667Z,10.47
2022-11-08T08:53:02.644Z,6.63
2022-11-08T08:55:30.060Z,5.47
2022-11-08T08:57:58.712Z,8.97
2022-11-08T09:03:13.394Z,6.23
2022-11-08T09:05:44.879Z,6.97
2022-11-08T09:08:14.780Z,6.13
2022-11-08T09:10:42.225Z,5.13
2022-11-08T09:13:09.210Z,6.33
2022-11-08T09:15:37.269Z,6.70
2022-11-08T09:18:05.273Z,5.30
2022-11-08T09:20:32.283Z,3.97
2022-11-08T09:23:03.151Z,4.37
2022-11-08T09:25:29.733Z,6.77
2022-11-08T09:27:56.190Z,4.60
2022-11-08T09:30:22.785Z,6.80
2022-11-08T09:33:04.727Z,8.70
2022-11-08T09:35:31.235Z,6.07
2022-11-08T09:37:58.442Z,6.80
2022-11-08T09:40:33.094Z,6.57
2022-11-08T09:43:18.594Z,5.57
2022-11-08T09:45:46.584Z,6.03
2022-11-08T09:48:51.381Z,5.67
2022-11-08T09:51:20.828Z,5.90
2022-11-08T09:53:57.279Z,6.70
2022-11-08T09:56:29.034Z,5.23
2022-11-08T09:59:09.847Z,5.20
2022-11-08T10:01:36.798Z,6.20
2022-11-08T10:04:07.880Z,6.20
2022-11-08T10:07:05.509Z,5.40
2022-11-08T10:10:11.062Z,5.80
2022-11-08T10:12:50.917Z,6.43
2022-11-08T10:15:38.511Z,6.13
2022-11-08T10:18:27.311Z,5.50
2022-11-08T10:21:08.985Z,6.03
2022-11-08T10:23:43.298Z,5.17
2022-11-08T10:26:26.655Z,5.53
2022-11-08T10:29:00.866Z,3.33
2022-11-08T10:31:28.923Z,6.97
2022-11-08T10:33:56.979Z,4.57
2022-11-08T10:36:30.127Z,3.83
2022-11-08T10:39:08.972Z,4.90
2022-11-08T10:41:44.713Z,4.77
2022-11-08T10:44:15.394Z,6.37
2022-11-08T10:46:49.234Z,7.97
2022-11-08T10:49:21.579Z,5.43
2022-11-08T10:51:51.933Z,5.03
2022-11-08T10:54:50.413Z,5.13
2022-11-08T10:57:23.908Z,5.37
2022-11-08T10:59:50.791Z,9.00
2022-11-08T11:02:32.834Z,5.17
2022-11-08T11:05:35.609Z,4.60
2022-11-08T11:08:13.589Z,4.50
2022-11-08T11:10:44.231Z,6.93
2022-11-08T11:13:24.001Z,5.63
2022-11-08T11:16:00.720Z,4.27
2022-11-08T11:18:37.507Z,4.60
2022-11-08T11:21:09.967Z,2.60
2022-11-08T11:23:46.472Z,2.93
2022-11-08T11:26:32.763Z,5.27
2022-11-08T11:28:59.188Z,4.47
2022-11-08T11:31:25.844Z,4.27
2022-11-08T11:33:52.311Z,4.37
2022-11-08T11:36:24.083Z,3.07
2022-11-08T11:38:59.521Z,4.00
2022-11-08T11:41:34.011Z,4.63
2022-11-08T11:44:21.430Z,4.13
2022-11-08T11:46:56.144Z,3.90
2022-11-08T11:49:24.229Z,4.53
2022-11-08T11:51:56.735Z,3.73
2022-11-08T11:54:33.692Z,3.33
2022-11-08T11:57:16.844Z,5.83
2022-11-08T11:59:50.942Z,4.77
2022-11-08T12:02:17.687Z,5.00
2022-11-08T12:05:04.613Z,4.07
2022-11-08T12:07:34.582Z,4.10
2022-11-08T12:10:25.642Z,5.20
2022-11-08T12:13:03.565Z,4.70
2022-11-08T12:15:31.759Z,3.47
2022-11-08T12:18:10.475Z,4.67
2022-11-08T12:20:42.692Z,5.37
2022-11-08T12:23:34.274Z,5.33
2022-11-08T12:26:07.271Z,4.73
2022-11-08T12:28:47.205Z,3.37
2022-11-08T12:31:41.095Z,4.53
2022-11-08T12:34:23.944Z,3.57
2022-11-08T12:36:57.097Z,5.63
2022-11-08T12:39:33.450Z,3.53
2022-11-08T12:42:34.758Z,4.33
2022-11-08T12:45:23.046Z,2.60
2022-11-08T12:47:57.791Z,4.77
2022-11-08T12:51:01.355Z,3.77
2022-11-08T12:53:40.526Z,4.43
2022-11-08T12:56:13.937Z,3.93
2022-11-08T12:58:49.213Z,3.23
2022-11-08T13:01:18.367Z,4.67
2022-11-08T13:03:50.972Z,4.63
2022-11-08T13:06:18.531Z,6.93
2022-11-08T13:08:53.407Z,5.53
2022-11-08T13:11:46.689Z,4.17
2022-11-08T13:14:15.486Z,5.73
2022-11-08T13:16:44.571Z,5.13
2022-11-08T13:19:30.455Z,4.20
2022-11-08T13:21:56.940Z,6.67
2022-11-08T13:24:44.483Z,4.57
2022-11-08T13:27:38.680Z,5.87
2022-11-08T13:30:11.262Z,5.77
2022-11-08T13:32:43.712Z,5.00
2022-11-08T13:35:51.636Z,6.67
2022-11-08T13:38:41.208Z,4.83
2022-11-08T13:41:22.268Z,7.00
2022-11-08T13:43:50.163Z,5.43
2022-11-08T13:46:29.739Z,5.10
2022-11-08T13:49:03.544Z,3.37
2022-11-08T13:51:34.599Z,7.63
2022-11-08T13:54:05.709Z,3.37
2022-11-08T13:56:41.181Z,4.37
2022-11-08T14:01:45.227Z,4.57
2022-11-08T14:04:41.351Z,4.37
2022-11-08T14:07:12.990Z,4.37
2022-11-08T14:10:16.177Z,4.97
2022-11-08T14:12:46.527Z,4.53
2022-11-08T14:15:24.484Z,3.13
2022-11-08T14:18:11.385Z,3.27
2022-11-08T14:20:41.043Z,4.60
2022-11-08T14:23:19.926Z,4.47
2022-11-08T14:25:48.716Z,3.23
2022-11-08T14:28:29.428Z,6.07
2022-11-08T14:30:56.946Z,4.60
2022-11-08T14:33:28.598Z,3.53
2022-11-08T14:36:00.221Z,3.90
2022-11-08T14:38:28.564Z,4.50
2022-11-08T14:40:58.163Z,4.30
2022-11-08T14:43:25.421Z,2.83
2022-11-08T14:45:52.039Z,4.63
2022-11-08T14:48:24.310Z,8.70
2022-11-08T14:50:58.226Z,4.20
2022-11-08T14:53:30.412Z,3.13
2022-11-08T14:56:10.942Z,4.33
2022-11-08T14:58:37.403Z,3.47
2022-11-08T15:01:04.893Z,3.20
2022-11-08T15:03:31.828Z,2.80
2022-11-08T15:05:59.688Z,4.67
2022-11-08T15:08:33.127Z,2.63
2022-11-08T15:11:10.998Z,4.10
2022-11-08T15:13:44.147Z,3.33
2022-11-08T15:16:11.335Z,3.93
2022-11-08T15:18:39.894Z,4.13
2022-11-08T15:21:27.474Z,5.30
2022-11-08T15:24:10.517Z,4.27
2022-11-08T15:26:37.353Z,5.07
2022-11-08T15:29:12.997Z,3.43
2022-11-08T15:32:01.223Z,2.30
2022-11-08T15:34:36.668Z,3.97
2022-11-08T15:37:03.590Z,4.00
2022-11-08T15:39:39.256Z,3.77
2022-11-08T15:42:13.294Z,6.43
2022-11-08T15:45:06.526Z,3.73
2022-11-08T15:47:35.894Z,4.03
2022-11-08T15:50:16.223Z,2.70
2022-11-08T15:52:43.624Z,3.30
2022-11-08T15:55:15.559Z,2.80
2022-11-08T15:57:43.706Z,5.90
2022-11-08T16:00:14.499Z,4.33
2022-11-08T16:02:40.942Z,4.73
2022-11-08T16:05:27.746Z,4.53
2022-11-08T16:07:54.931Z,4.20
2022-11-08T16:10:29.869Z,4.70
2022-11-08T16:12:58.829Z,3.50
2022-11-08T16:15:25.566Z,2.87
2022-11-08T16:17:52.200Z,2.73
2022-11-08T16:20:27.619Z,4.63
2022-11-08T16:22:55.656Z,6.10
2022-11-08T16:25:22.923Z,4.00
2022-11-08T16:27:53.400Z,4.10
2022-11-08T16:30:20.364Z,4.37
2022-11-08T16:32:47.525Z,3.90
2022-11-08T16:35:14.243Z,2.47
2022-11-08T16:37:41.459Z,4.37
2022-11-08T16:40:21.603Z,3.23
2022-11-08T16:42:50.706Z,2.40
2022-11-08T16:45:19.636Z,4.57
2022-11-08T16:47:51.221Z,1.70
2022-11-08T16:50:25.656Z,3.53
2022-11-08T16:52:52.560Z,5.60
2022-11-08T16:55:20.332Z,6.53
2022-11-08T16:57:48.021Z,5.70
2022-11-08T17:00:19.242Z,5.77
2022-11-08T17:02:53.011Z,4.10
2022-11-08T17:05:22.637Z,6.20
2022-11-08T17:07:52.971Z,7.13
2022-11-08T17:10:22.013Z,8.10
2022-11-08T17:12:49.163Z,6.80
2022-11-08T17:15:18.473Z,8.23
2022-11-08T17:17:44.956Z,4.30
2022-11-08T17:20:13.480Z,3.93
2022-11-08T17:22:41.218Z,4.13
2022-11-08T17:25:08.658Z,3.93
2022-11-08T17:27:35.754Z,2.47
2022-11-08T17:30:02.709Z,3.20
2022-11-08T17:32:29.212Z,3.10
2022-11-08T17:34:55.665Z,6.07
2022-11-08T17:37:23.038Z,2.80
2022-11-08T17:39:49.654Z,4.00
2022-11-08T17:42:16.069Z,4.17
2022-11-08T17:44:42.538Z,2.73
2022-11-08T17:47:08.964Z,2.50
2022-11-08T17:49:39.873Z,2.97
2022-11-08T17:52:09.447Z,2.97
2022-11-08T17:54:35.922Z,4.63
2022-11-08T17:57:02.360Z,4.33
2022-11-08T17:59:28.839Z,3.23
2022-11-08T18:01:55.784Z,3.30
2022-11-08T18:04:22.363Z,3.27
2022-11-08T18:06:48.915Z,5.43
2022-11-08T18:09:15.508Z,2.33
2022-11-08T18:11:47.840Z,2.87
2022-11-08T18:14:28.201Z,2.97
2022-11-08T18:16:56.090Z,4.17
2022-11-08T18:19:22.911Z,3.10
2022-11-08T18:21:49.329Z,2.67
2022-11-08T18:24:16.408Z,3.13
2022-11-08T18:26:43.015Z,3.50
2022-11-08T18:29:09.544Z,2.77
2022-11-08T18:31:36.826Z,3.10
2022-11-08T18:34:03.345Z,3.30
2022-11-08T18:36:31.016Z,2.03
2022-11-08T18:38:59.865Z,4.50
2022-11-08T18:41:31.569Z,3.67
2022-11-08T18:43:59.325Z,3.30
2022-11-08T18:46:27.671Z,2.10
2022-11-08T18:48:54.651Z,2.67
2022-11-08T18:51:22.569Z,3.60
2022-11-08T18:53:49.637Z,2.43
2022-11-08T18:56:16.497Z,2.63
2022-11-08T18:58:44.030Z,3.10
2022-11-08T19:01:10.629Z,5.00
2022-11-08T19:03:37.431Z,2.70
2022-11-08T19:06:04.470Z,2.57
2022-11-08T19:08:31.634Z,3.43
2022-11-08T19:11:06.784Z,3.97
2022-11-08T19:13:34.477Z,2.53
2022-11-08T19:16:05.592Z,3.77
2022-11-08T19:18:33.384Z,4.00
2022-11-08T19:21:04.999Z,3.93
2022-11-08T19:23:32.111Z,5.50
2022-11-08T19:26:01.162Z,2.90
2022-11-08T19:28:32.692Z,3.10
2022-11-08T19:31:00.143Z,2.70
2022-11-08T19:33:28.048Z,5.03
2022-11-08T19:35:55.287Z,2.97
2022-11-08T19:38:22.523Z,2.40
2022-11-08T19:40:49.096Z,3.83
2022-11-08T19:43:16.727Z,5.50
2022-11-08T19:45:49.185Z,2.57
2022-11-08T19:48:17.789Z,5.33
2022-11-08T19:50:44.600Z,2.37
2022-11-08T19:53:11.044Z,3.73
2022-11-08T19:55:37.523Z,3.67
2022-11-08T19:58:04.089Z,2.13
2022-11-08T20:00:30.620Z,2.30
2022-11-08T20:02:57.064Z,4.87
2022-11-08T20:05:23.596Z,2.63
2022-11-08T20:07:50.727Z,3.33
2022-11-08T20:10:17.637Z,4.53
2022-11-08T20:12:44.169Z,3.40
2022-11-08T20:15:10.901Z,2.23
2022-11-08T20:17:37.351Z,3.30
2022-11-08T20:20:04.353Z,2.43
2022-11-08T20:22:30.799Z,3.23
2022-11-08T20:24:57.222Z,2.77
2022-11-08T20:27:23.707Z,4.43
2022-11-08T20:29:50.210Z,1.70
2022-11-08T20:32:16.650Z,3.00
2022-11-08T20:34:43.088Z,2.83
2022-11-08T20:37:14.417Z,2.07
2022-11-08T20:39:41.286Z,2.90
2022-11-08T20:42:07.758Z,2.53
2022-11-08T20:44:34.199Z,2.53
2022-11-08T20:47:06.265Z,3.17
2022-11-08T20:49:33.273Z,4.30
2022-11-08T20:51:59.815Z,3.83
2022-11-08T20:54:26.521Z,2.43
2022-11-08T20:56:52.985Z,2.60
2022-11-08T20:59:19.395Z,3.53
2022-11-08T21:01:46.038Z,2.27
2022-11-08T21:04:12.700Z,3.00
2022-11-08T21:06:39.361Z,3.03
2022-11-08T21:11:53.428Z,4.90
2022-11-08T21:14:19.928Z,2.43
2022-11-08T21:17:19.761Z,5.33
2022-11-08T21:19:32.877Z,9.83
2022-11-08T21:22:15.153Z,3.87
2022-11-08T21:24:46.152Z,3.80
2022-11-08T21:27:12.972Z,3.43
2022-11-08T21:29:39.926Z,2.73
2022-11-08T21:32:06.852Z,4.07
2022-11-08T21:34:33.403Z,3.00
2022-11-08T21:37:00.084Z,3.73
2022-11-08T21:39:26.641Z,4.10
2022-11-08T21:41:53.280Z,3.53
2022-11-08T21:44:19.837Z,4.53
2022-11-08T21:46:46.563Z,3.00
2022-11-08T21:49:13.377Z,2.07
2022-11-08T21:51:39.942Z,5.17
2022-11-08T21:54:06.756Z,2.03
2022-11-08T21:56:34.277Z,2.30
2022-11-08T21:59:01.519Z,3.00
2022-11-08T22:01:30.574Z,2.10
2022-11-08T22:03:58.404Z,2.60
2022-11-08T22:06:24.926Z,3.20
2022-11-08T22:08:51.545Z,2.17
2022-11-08T22:11:18.581Z,3.17
2022-11-08T22:13:45.044Z,2.83
2022-11-08T22:16:12.616Z,3.50
2022-11-08T22:21:37.878Z,3.37
2022-11-08T22:24:13.388Z,2.67
2022-11-08T22:26:40.902Z,5.17
2022-11-08T22:29:07.516Z,4.97
2022-11-08T22:31:34.907Z,4.33
2022-11-08T22:34:01.993Z,3.57
2022-11-08T22:36:28.672Z,2.53
2022-11-08T22:38:55.351Z,5.63
2022-11-08T22:41:22.734Z,2.70
2022-11-08T22:43:50.470Z,2.83
2022-11-08T22:46:17.186Z,2.97
2022-11-08T22:48:43.683Z,5.00
2022-11-08T22:51:11.016Z,4.40
2022-11-08T22:53:37.752Z,3.03
2022-11-08T22:56:10.722Z,5.57
2022-11-08T22:58:37.954Z,3.23
2022-11-08T23:01:05.884Z,2.40
2022-11-08T23:03:32.410Z,2.13
2022-11-08T23:06:01.087Z,3.20
2022-11-08T23:08:27.742Z,3.23
2022-11-08T23:11:12.940Z,2.37
2022-11-08T23:13:58.203Z,3.70
2022-11-08T23:16:37.652Z,4.63
2022-11-08T23:19:40.084Z,2.33
2022-11-08T23:22:29.432Z,3.23
2022-11-08T23:24:56.329Z,3.90
2022-11-08T23:27:41.647Z,3.27
2022-11-08T23:30:29.804Z,3.43
2022-11-08T23:32:56.552Z,2.90
2022-11-08T23:35:23.628Z,6.03
2022-11-08T23:37:50.273Z,3.50
2022-11-08T23:40:36.843Z,5.23
2022-11-08T23:43:28.991Z,3.20
2022-11-08T23:45:56.334Z,3.60
2022-11-08T23:48:22.911Z,4.47
2022-11-08T23:50:51.236Z,2.37
2022-11-08T23:53:19.349Z,2.53
2022-11-08T23:55:46.236Z,3.73
2022-11-08T23:58:13.978Z,4.40
